Alamogordo, New Mexico
Current Conditions -  °F | °C
As of 3:35 PM on Friday 19 Dec 2014 (Local Time) from KALM Reporting Station
Clear Clear  
Wind Chill: 50°   Ceiling: Unl
Heat Index: 50°   Visibility: 10mi
Dew Point: 28°   Wind: 12mph
Humidity: 43%   Direction: 330°NNW
Pressure: 30.14"   Gusts: NA
Location:  32.9°N, 105.96°W
Report Text: KALM 192235Z AUTO 33010KT 10SM CLR 10/M02 A3014 RMK AO2
Loading
Personal Weather Stations






























Interactive Weather Map New forecast layout! Learn more

10-Day Weather Forecast

Advertisements
Track Severe Weather on mobile